createdAt,value
2022-12-27T00:02:03.531Z,11.60
2022-12-27T00:04:33.006Z,11.03
2022-12-27T00:07:03.706Z,11.53
2022-12-27T00:09:32.995Z,11.50
2022-12-27T00:12:02.749Z,12.87
2022-12-27T00:14:31.914Z,11.10
2022-12-27T00:17:01.168Z,11.00
2022-12-27T00:19:30.375Z,11.83
2022-12-27T00:21:59.665Z,11.93
2022-12-27T00:24:30.341Z,11.30
2022-12-27T00:26:59.681Z,11.60
2022-12-27T00:29:28.895Z,11.90
2022-12-27T00:31:58.614Z,10.80
2022-12-27T00:34:27.820Z,10.73
2022-12-27T00:36:57.002Z,10.80
2022-12-27T00:39:26.165Z,11.00
2022-12-27T00:41:56.827Z,10.77
2022-12-27T00:44:25.922Z,11.60
2022-12-27T00:46:55.171Z,12.50
2022-12-27T00:49:24.489Z,11.87
2022-12-27T00:51:53.740Z,11.23
2022-12-27T00:54:22.934Z,10.73
2022-12-27T00:56:52.142Z,10.73
2022-12-27T00:59:22.690Z,10.77
2022-12-27T01:01:51.942Z,12.43
2022-12-27T01:04:21.223Z,10.93
2022-12-27T01:06:50.419Z,11.03
2022-12-27T01:09:19.542Z,11.63
2022-12-27T01:11:48.851Z,12.30
2022-12-27T01:14:18.053Z,12.77
2022-12-27T01:16:48.802Z,11.77
2022-12-27T01:19:18.451Z,12.60
2022-12-27T01:21:47.684Z,11.10
2022-12-27T01:24:16.952Z,9.20
2022-12-27T01:26:46.234Z,9.40
2022-12-27T01:29:15.431Z,9.50
2022-12-27T01:31:44.807Z,8.87
2022-12-27T01:34:15.444Z,9.03
2022-12-27T01:36:45.213Z,8.80
2022-12-27T01:39:14.970Z,7.40
2022-12-27T01:42:02.497Z,7.30
2022-12-27T01:45:02.277Z,7.83
2022-12-27T01:47:37.713Z,7.20
2022-12-27T01:50:16.533Z,7.37
2022-12-27T01:52:47.906Z,7.23
2022-12-27T01:55:21.034Z,7.03
2022-12-27T01:57:51.261Z,7.47
2022-12-27T02:00:20.520Z,7.33
2022-12-27T02:02:50.259Z,7.40
2022-12-27T02:05:21.871Z,7.67
2022-12-27T02:08:05.926Z,7.57
2022-12-27T02:10:35.786Z,8.17
2022-12-27T02:13:06.989Z,6.80
2022-12-27T02:15:36.219Z,8.10
2022-12-27T02:18:05.692Z,8.60
2022-12-27T02:20:40.373Z,8.83
2022-12-27T02:23:49.432Z,7.73
2022-12-27T02:26:36.325Z,7.83
2022-12-27T02:29:14.544Z,7.90
2022-12-27T02:31:50.313Z,7.87
2022-12-27T02:34:20.835Z,7.27
2022-12-27T02:36:53.263Z,7.73
2022-12-27T02:39:22.928Z,7.23
2022-12-27T02:42:10.279Z,8.13
2022-12-27T02:45:12.727Z,6.67
2022-12-27T02:47:59.168Z,6.93
2022-12-27T02:50:48.965Z,7.00
2022-12-27T02:53:20.847Z,6.70
2022-12-27T02:56:11.508Z,7.00
2022-12-27T02:58:47.119Z,5.70
2022-12-27T03:01:38.088Z,5.63
2022-12-27T03:04:15.789Z,7.80
2022-12-27T03:06:55.239Z,6.57
2022-12-27T03:09:50.028Z,5.50
2022-12-27T03:12:44.224Z,7.13
2022-12-27T03:15:38.747Z,6.80
2022-12-27T03:18:11.920Z,6.47
2022-12-27T03:20:59.542Z,6.07
2022-12-27T03:23:47.718Z,5.83
2022-12-27T03:26:17.575Z,5.33
2022-12-27T03:29:05.471Z,6.30
2022-12-27T03:31:54.100Z,6.30
2022-12-27T03:34:38.465Z,5.80
2022-12-27T03:37:26.864Z,6.23
2022-12-27T03:39:58.637Z,5.90
2022-12-27T03:42:46.777Z,5.33
2022-12-27T03:45:16.466Z,5.80
2022-12-27T03:47:48.487Z,6.13
2022-12-27T03:50:23.367Z,6.47
2022-12-27T03:52:56.691Z,5.00
2022-12-27T03:55:33.016Z,5.60
2022-12-27T03:58:03.207Z,4.80
2022-12-27T04:00:32.367Z,4.77
2022-12-27T04:03:01.744Z,4.10
2022-12-27T04:05:32.878Z,4.97
2022-12-27T04:08:19.751Z,4.60
2022-12-27T04:11:06.774Z,4.50
2022-12-27T04:13:54.780Z,3.73
2022-12-27T04:16:41.351Z,4.37
2022-12-27T04:19:28.232Z,4.70
2022-12-27T04:22:16.707Z,5.00
2022-12-27T04:25:03.277Z,4.80
2022-12-27T04:27:50.196Z,5.07
2022-12-27T04:30:37.374Z,5.00
2022-12-27T04:33:24.081Z,6.10
2022-12-27T04:35:53.366Z,5.63
2022-12-27T04:38:23.898Z,5.53
2022-12-27T04:41:10.913Z,4.80
2022-12-27T04:43:57.880Z,4.90
2022-12-27T04:46:45.844Z,5.90
2022-12-27T04:49:45.704Z,5.23
2022-12-27T04:52:33.808Z,4.90
2022-12-27T04:55:12.468Z,4.90
2022-12-27T04:57:41.729Z,4.83
2022-12-27T05:00:28.759Z,4.93
2022-12-27T05:02:59.521Z,4.60
2022-12-27T05:05:29.051Z,4.30
2022-12-27T05:08:17.481Z,4.50
2022-12-27T05:11:05.873Z,4.13
2022-12-27T05:13:52.881Z,3.37
2022-12-27T05:16:22.231Z,4.43
2022-12-27T05:18:51.393Z,5.33
2022-12-27T05:21:20.706Z,4.83
2022-12-27T05:24:07.379Z,5.07
2022-12-27T05:26:38.637Z,4.00
2022-12-27T05:29:08.335Z,4.23
2022-12-27T05:31:37.710Z,4.27
2022-12-27T05:34:07.669Z,4.47
2022-12-27T05:36:36.813Z,4.20
2022-12-27T05:39:06.213Z,4.20
2022-12-27T05:41:35.552Z,3.60
2022-12-27T05:44:07.616Z,5.57
2022-12-27T05:46:37.294Z,4.10
2022-12-27T05:49:06.440Z,3.90
2022-12-27T05:51:35.733Z,4.07
2022-12-27T05:54:04.874Z,3.70
2022-12-27T05:56:35.607Z,4.00
2022-12-27T05:59:08.299Z,4.00
2022-12-27T06:01:37.643Z,3.50
2022-12-27T06:04:07.037Z,3.80
2022-12-27T06:06:36.640Z,3.50
2022-12-27T06:09:05.872Z,4.67
2022-12-27T06:11:35.071Z,4.67
2022-12-27T06:14:04.306Z,4.53
2022-12-27T06:16:35.146Z,4.43
2022-12-27T06:19:04.471Z,3.83
2022-12-27T06:21:34.076Z,4.50
2022-12-27T06:24:03.424Z,4.07
2022-12-27T06:26:32.610Z,4.60
2022-12-27T06:29:02.482Z,5.00
2022-12-27T06:31:31.676Z,4.90
2022-12-27T06:34:02.338Z,4.80
2022-12-27T06:36:32.961Z,5.50
2022-12-27T06:39:02.459Z,5.87
2022-12-27T06:41:31.680Z,6.00
2022-12-27T06:44:01.028Z,6.37
2022-12-27T06:46:30.246Z,5.80
2022-12-27T06:48:59.554Z,6.97
2022-12-27T06:51:30.224Z,6.90
2022-12-27T06:53:59.482Z,6.60
2022-12-27T06:56:28.632Z,7.63
2022-12-27T06:58:58.290Z,6.57
2022-12-27T07:01:28.593Z,7.40
2022-12-27T07:03:58.997Z,7.60
2022-12-27T07:06:29.641Z,6.37
2022-12-27T07:09:00.600Z,6.17
2022-12-27T07:11:30.012Z,7.17
2022-12-27T07:13:59.228Z,7.93
2022-12-27T07:16:29.521Z,7.73
2022-12-27T07:18:59.572Z,21.57
2022-12-27T07:21:29.884Z,7.93
2022-12-27T07:24:00.633Z,6.53
2022-12-27T07:26:30.870Z,6.77
2022-12-27T07:29:00.888Z,5.77
2022-12-27T07:31:31.747Z,8.33
2022-12-27T07:34:02.425Z,17.30
2022-12-27T07:36:34.402Z,8.90
2022-12-27T07:39:05.515Z,6.80
2022-12-27T07:41:34.722Z,6.77
2022-12-27T07:44:04.370Z,5.30
2022-12-27T07:46:34.263Z,8.87
2022-12-27T07:49:03.456Z,5.93
2022-12-27T07:51:32.842Z,10.47
2022-12-27T07:54:02.042Z,6.50
2022-12-27T07:56:32.828Z,6.37
2022-12-27T07:59:02.906Z,7.07
2022-12-27T08:01:53.090Z,7.20
2022-12-27T08:04:22.622Z,7.00
2022-12-27T08:06:52.818Z,7.10
2022-12-27T08:09:23.055Z,7.13
2022-12-27T08:11:53.913Z,8.73
2022-12-27T08:14:23.206Z,7.90
2022-12-27T08:16:52.742Z,7.53
2022-12-27T08:19:21.970Z,8.03
2022-12-27T08:21:51.416Z,8.30
2022-12-27T08:24:20.640Z,8.03
2022-12-27T08:26:50.108Z,7.30
2022-12-27T08:29:20.880Z,9.50
2022-12-27T08:31:50.159Z,8.60
2022-12-27T08:34:19.416Z,10.07
2022-12-27T08:36:56.388Z,9.57
2022-12-27T08:39:26.339Z,11.83
2022-12-27T08:41:55.680Z,10.80
2022-12-27T08:44:27.606Z,10.33
2022-12-27T08:46:56.961Z,10.37
2022-12-27T08:49:26.168Z,10.17
2022-12-27T08:51:55.945Z,9.50
2022-12-27T08:54:25.287Z,10.63
2022-12-27T08:56:54.586Z,10.43
2022-12-27T08:59:23.857Z,12.13
2022-12-27T09:01:54.835Z,12.33
2022-12-27T09:04:24.222Z,11.43
2022-12-27T09:06:53.712Z,13.30
2022-12-27T09:09:22.923Z,14.30
2022-12-27T09:11:52.151Z,13.93
2022-12-27T09:14:21.501Z,14.53
2022-12-27T09:16:51.836Z,15.33
2022-12-27T09:19:22.569Z,14.43
2022-12-27T09:21:51.961Z,14.53
2022-12-27T09:24:21.117Z,15.10
2022-12-27T09:26:50.614Z,18.67
2022-12-27T09:29:19.779Z,16.60
2022-12-27T09:31:49.175Z,18.43
2022-12-27T09:34:18.551Z,16.83
2022-12-27T09:36:49.424Z,15.33
2022-12-27T09:39:18.799Z,15.77
2022-12-27T09:44:45.876Z,17.87
2022-12-27T09:47:17.478Z,15.63
2022-12-27T09:49:48.046Z,15.90
2022-12-27T09:52:21.882Z,15.67
2022-12-27T09:55:02.650Z,17.30
2022-12-27T09:57:36.665Z,16.10
2022-12-27T10:00:08.776Z,15.60
2022-12-27T10:02:38.378Z,16.10
2022-12-27T10:05:20.765Z,16.30
2022-12-27T10:08:04.150Z,16.27
2022-12-27T10:10:39.782Z,21.03
2022-12-27T10:13:15.561Z,15.63
2022-12-27T10:15:48.736Z,15.00
2022-12-27T10:18:23.087Z,12.30
2022-12-27T10:20:57.928Z,10.83
2022-12-27T10:23:30.572Z,10.80
2022-12-27T10:26:01.197Z,11.90
2022-12-27T10:28:34.711Z,9.43
2022-12-27T10:31:04.777Z,9.03
2022-12-27T10:33:35.984Z,8.10
2022-12-27T10:36:09.050Z,7.40
2022-12-27T10:38:39.653Z,7.70
2022-12-27T10:41:19.674Z,8.30
2022-12-27T10:43:50.568Z,6.83
2022-12-27T10:46:21.903Z,6.30
2022-12-27T10:49:20.217Z,6.17
2022-12-27T10:51:45.644Z,6.90
2022-12-27T10:54:18.269Z,6.50
2022-12-27T10:56:47.782Z,4.80
2022-12-27T10:59:18.264Z,4.80
2022-12-27T11:01:51.393Z,4.73
2022-12-27T11:04:22.326Z,3.93
2022-12-27T11:06:52.868Z,3.93
2022-12-27T11:09:34.153Z,4.23
2022-12-27T11:12:29.034Z,5.10
2022-12-27T11:14:59.891Z,4.67
2022-12-27T11:17:31.439Z,4.23
2022-12-27T11:20:03.399Z,4.40
2022-12-27T11:22:32.717Z,4.10
2022-12-27T11:25:03.398Z,4.27
2022-12-27T11:27:32.901Z,4.13
2022-12-27T11:30:02.171Z,4.10
2022-12-27T11:32:31.438Z,4.50
2022-12-27T11:35:00.950Z,5.80
2022-12-27T11:37:30.299Z,4.40
2022-12-27T11:40:16.010Z,4.07
2022-12-27T11:42:46.519Z,3.77
2022-12-27T11:45:21.888Z,4.90
2022-12-27T11:47:53.677Z,4.87
2022-12-27T11:50:40.849Z,3.47
2022-12-27T11:53:14.532Z,4.00
2022-12-27T11:55:53.441Z,4.17
2022-12-27T11:58:45.984Z,4.87
2022-12-27T12:01:31.470Z,5.73
2022-12-27T12:04:19.318Z,8.00
2022-12-27T12:06:53.226Z,4.00
2022-12-27T12:09:40.079Z,4.47
2022-12-27T12:12:33.195Z,3.47
2022-12-27T12:15:14.485Z,4.57
2022-12-27T12:18:09.253Z,5.60
2022-12-27T12:20:56.164Z,4.70
2022-12-27T12:23:29.927Z,4.50
2022-12-27T12:26:08.065Z,8.60
2022-12-27T12:28:59.129Z,3.50
2022-12-27T12:31:38.403Z,3.60
2022-12-27T12:34:20.305Z,4.40
2022-12-27T12:37:05.179Z,3.87
2022-12-27T12:39:48.802Z,4.93
2022-12-27T12:42:22.970Z,4.33
2022-12-27T12:45:05.253Z,3.40
2022-12-27T12:47:45.528Z,4.40
2022-12-27T12:50:26.277Z,4.90
2022-12-27T12:53:16.613Z,4.13
2022-12-27T12:55:56.545Z,4.30
2022-12-27T12:58:37.922Z,4.10
2022-12-27T13:01:15.486Z,6.07
2022-12-27T13:03:52.448Z,5.60
2022-12-27T13:06:32.193Z,5.03
2022-12-27T13:09:05.288Z,6.83
2022-12-27T13:11:42.836Z,5.20
2022-12-27T13:14:29.355Z,5.90
2022-12-27T13:17:03.582Z,5.50
2022-12-27T13:19:41.090Z,4.70
2022-12-27T13:22:14.420Z,4.30
2022-12-27T13:24:48.053Z,4.13
2022-12-27T13:27:23.350Z,4.83
2022-12-27T13:30:04.716Z,5.83
2022-12-27T13:32:45.945Z,4.17
2022-12-27T13:35:22.202Z,4.90
2022-12-27T13:37:57.675Z,3.60
2022-12-27T13:40:34.345Z,4.40
2022-12-27T13:43:20.503Z,4.80
2022-12-27T13:45:57.768Z,3.93
2022-12-27T13:48:41.820Z,4.53
2022-12-27T13:51:18.748Z,4.70
2022-12-27T13:54:07.672Z,4.20
2022-12-27T13:56:55.541Z,3.50
2022-12-27T13:59:34.936Z,3.77
2022-12-27T14:02:11.713Z,4.20
2022-12-27T14:04:59.287Z,4.73
2022-12-27T14:07:36.031Z,3.57
2022-12-27T14:10:11.559Z,4.37
2022-12-27T14:12:58.802Z,3.90
2022-12-27T14:15:29.942Z,4.00
2022-12-27T14:18:09.781Z,4.00
2022-12-27T14:20:48.554Z,3.90
2022-12-27T14:23:26.592Z,3.83
2022-12-27T14:26:10.190Z,3.50
2022-12-27T14:28:50.593Z,3.90
2022-12-27T14:31:33.767Z,8.60
2022-12-27T14:34:16.532Z,3.97
2022-12-27T14:36:59.769Z,4.60
2022-12-27T14:39:46.971Z,5.20
2022-12-27T14:42:33.858Z,4.90
2022-12-27T14:45:30.109Z,3.80
2022-12-27T14:48:19.115Z,3.60
2022-12-27T14:54:31.318Z,3.70
2022-12-27T14:57:05.892Z,4.53
2022-12-27T14:59:40.814Z,3.90
2022-12-27T15:02:22.223Z,4.10
2022-12-27T15:04:56.934Z,3.80
2022-12-27T15:07:51.103Z,4.20
2022-12-27T15:10:26.047Z,3.90
2022-12-27T15:13:03.801Z,4.23
2022-12-27T15:15:38.600Z,4.20
2022-12-27T15:18:21.066Z,5.40
2022-12-27T15:20:58.905Z,3.77
2022-12-27T15:23:31.407Z,3.97
2022-12-27T15:26:13.689Z,6.43
2022-12-27T15:28:53.802Z,5.57
2022-12-27T15:31:27.761Z,4.47
2022-12-27T15:34:04.505Z,3.97
2022-12-27T15:36:40.418Z,3.30
2022-12-27T15:39:40.735Z,4.40
2022-12-27T15:42:13.705Z,4.10
2022-12-27T15:44:50.872Z,3.23
2022-12-27T15:47:44.260Z,3.80
2022-12-27T15:50:23.492Z,3.90
2022-12-27T15:53:03.006Z,5.10
2022-12-27T15:55:40.784Z,3.07
2022-12-27T15:58:15.190Z,3.50
2022-12-27T16:00:47.029Z,3.70
2022-12-27T16:03:37.761Z,3.47
2022-12-27T16:06:08.307Z,3.37
2022-12-27T16:08:39.837Z,3.60
2022-12-27T16:11:11.131Z,4.07
2022-12-27T16:13:43.293Z,3.57
2022-12-27T16:16:35.356Z,3.67
2022-12-27T16:19:21.532Z,3.77
2022-12-27T16:21:50.816Z,3.70
2022-12-27T16:24:21.136Z,3.90
2022-12-27T16:26:55.620Z,3.53
2022-12-27T16:29:28.872Z,3.83
2022-12-27T16:32:12.993Z,3.83
2022-12-27T16:34:44.545Z,6.90
2022-12-27T16:37:24.181Z,6.60
2022-12-27T16:40:08.656Z,5.80
2022-12-27T16:43:03.029Z,4.57
2022-12-27T16:45:37.497Z,5.27
2022-12-27T16:48:11.090Z,6.20
2022-12-27T16:50:47.974Z,7.10
2022-12-27T16:53:28.771Z,7.40
2022-12-27T16:56:12.678Z,7.07
2022-12-27T16:58:42.176Z,6.87
2022-12-27T17:01:50.057Z,5.57
2022-12-27T17:04:34.581Z,7.40
2022-12-27T17:07:07.315Z,5.70
2022-12-27T17:09:46.573Z,5.90
2022-12-27T17:12:21.057Z,7.60
2022-12-27T17:14:50.778Z,6.60
2022-12-27T17:17:22.758Z,5.80
2022-12-27T17:20:02.079Z,5.50
2022-12-27T17:22:36.038Z,5.60
2022-12-27T17:25:06.240Z,5.90
2022-12-27T17:27:48.919Z,7.30
2022-12-27T17:30:21.285Z,5.70
2022-12-27T17:32:58.551Z,5.27
2022-12-27T17:35:32.033Z,5.23
2022-12-27T17:38:10.078Z,6.30
2022-12-27T17:40:43.676Z,7.10
2022-12-27T17:43:35.610Z,5.43
2022-12-27T17:46:15.224Z,6.70
2022-12-27T17:48:44.564Z,5.77
2022-12-27T17:51:15.470Z,5.80
2022-12-27T17:54:06.985Z,7.00
2022-12-27T17:56:57.689Z,7.37
2022-12-27T17:59:28.052Z,8.03
2022-12-27T18:01:58.511Z,9.23
2022-12-27T18:04:28.671Z,8.40
2022-12-27T18:06:58.584Z,9.13
2022-12-27T18:09:41.339Z,9.90
2022-12-27T18:12:16.979Z,8.40
2022-12-27T18:14:46.958Z,8.60
2022-12-27T18:17:28.506Z,8.07
2022-12-27T18:19:58.695Z,9.00
2022-12-27T18:22:29.109Z,9.00
2022-12-27T18:25:01.244Z,7.77
2022-12-27T18:27:30.587Z,9.27
2022-12-27T18:29:59.897Z,7.60
2022-12-27T18:32:29.353Z,6.23
2022-12-27T18:35:01.038Z,7.90
2022-12-27T18:37:31.192Z,7.53
2022-12-27T18:40:04.843Z,8.40
2022-12-27T18:42:35.880Z,7.20
2022-12-27T18:45:06.757Z,8.60
2022-12-27T18:47:40.085Z,8.60
2022-12-27T18:50:17.806Z,10.40
2022-12-27T18:52:52.955Z,8.43
2022-12-27T18:55:27.783Z,8.67
2022-12-27T18:58:03.772Z,9.63
2022-12-27T19:00:33.307Z,9.37
2022-12-27T19:03:15.099Z,10.90
2022-12-27T19:05:58.329Z,9.50
2022-12-27T19:08:29.362Z,10.47
2022-12-27T19:11:00.308Z,11.80
2022-12-27T19:13:31.379Z,9.83
2022-12-27T19:16:01.138Z,10.20
2022-12-27T19:18:32.558Z,9.00
2022-12-27T19:21:03.043Z,9.57
2022-12-27T19:23:33.687Z,10.70
2022-12-27T19:26:07.061Z,10.27
2022-12-27T19:28:36.931Z,10.80
2022-12-27T19:31:18.375Z,8.40
2022-12-27T19:33:49.635Z,9.73
2022-12-27T19:36:19.071Z,9.90
2022-12-27T19:38:48.365Z,8.40
2022-12-27T19:41:19.322Z,9.17
2022-12-27T19:43:49.069Z,7.80
2022-12-27T19:46:19.309Z,9.63
2022-12-27T19:49:23.310Z,10.47
2022-12-27T19:51:39.156Z,9.40
2022-12-27T19:54:10.191Z,13.50
2022-12-27T19:56:41.171Z,13.90
2022-12-27T19:59:14.669Z,13.40
2022-12-27T20:01:45.703Z,12.00
2022-12-27T20:04:15.103Z,15.87
2022-12-27T20:06:44.633Z,12.40
2022-12-27T20:09:16.324Z,10.87
2022-12-27T20:11:47.575Z,11.73
2022-12-27T20:14:17.748Z,9.20
2022-12-27T20:16:47.504Z,10.13
2022-12-27T20:19:18.440Z,10.07
2022-12-27T20:21:48.175Z,8.77
2022-12-27T20:24:17.653Z,9.80
2022-12-27T20:26:48.374Z,10.77
2022-12-27T20:29:17.557Z,9.13
2022-12-27T20:31:48.952Z,9.37
2022-12-27T20:34:18.382Z,8.50
2022-12-27T20:36:47.569Z,8.77
2022-12-27T20:39:17.025Z,9.70
2022-12-27T20:41:46.330Z,10.80
2022-12-27T20:44:17.234Z,10.77
2022-12-27T20:46:47.719Z,10.47
2022-12-27T20:49:16.862Z,10.57
2022-12-27T20:51:46.127Z,10.90
2022-12-27T20:54:15.528Z,11.90
2022-12-27T20:56:44.732Z,11.50
2022-12-27T20:59:13.933Z,11.50
2022-12-27T21:01:44.713Z,10.60
2022-12-27T21:04:14.077Z,11.33
2022-12-27T21:06:43.451Z,12.30
2022-12-27T21:09:13.011Z,13.60
2022-12-27T21:11:42.409Z,14.80
2022-12-27T21:14:12.763Z,14.13
2022-12-27T21:16:42.106Z,15.47
2022-12-27T21:19:12.853Z,12.60
2022-12-27T21:21:42.045Z,15.30
2022-12-27T21:24:12.408Z,18.17
2022-12-27T21:26:42.068Z,14.40
2022-12-27T21:29:12.420Z,16.57
2022-12-27T21:31:42.004Z,14.80
2022-12-27T21:34:13.057Z,15.07
2022-12-27T21:36:42.554Z,15.20
2022-12-27T21:39:11.899Z,14.23
2022-12-27T21:41:41.862Z,13.33
2022-12-27T21:44:11.565Z,16.23
2022-12-27T21:46:41.643Z,12.67
2022-12-27T21:49:13.418Z,12.00
2022-12-27T21:51:43.460Z,12.80
2022-12-27T21:54:14.151Z,13.23
2022-12-27T21:56:43.606Z,13.13
2022-12-27T21:59:12.890Z,13.33
2022-12-27T22:01:50.317Z,14.93
2022-12-27T22:04:23.460Z,14.83
2022-12-27T22:06:52.678Z,13.60
2022-12-27T22:09:22.294Z,15.77
2022-12-27T22:11:51.682Z,16.03
2022-12-27T22:14:25.435Z,15.70
2022-12-27T22:16:55.818Z,13.73
2022-12-27T22:19:26.425Z,11.50
2022-12-27T22:21:55.803Z,13.63
2022-12-27T22:24:25.133Z,13.60
2022-12-27T22:26:54.345Z,14.37
2022-12-27T22:29:24.233Z,14.70
2022-12-27T22:31:53.761Z,15.30
2022-12-27T22:34:23.038Z,15.40
2022-12-27T22:36:54.529Z,11.90
2022-12-27T22:39:23.762Z,12.37
2022-12-27T22:41:52.990Z,11.20
2022-12-27T22:44:22.437Z,10.60
2022-12-27T22:47:24.598Z,11.73
2022-12-27T22:49:41.105Z,11.00
2022-12-27T22:52:11.695Z,10.60
2022-12-27T22:55:04.199Z,9.93
2022-12-27T22:57:30.331Z,8.80
2022-12-27T22:59:59.482Z,9.30
2022-12-27T23:02:28.842Z,9.83
2022-12-27T23:04:58.269Z,9.13
2022-12-27T23:08:05.156Z,9.23
2022-12-27T23:10:18.279Z,8.83
2022-12-27T23:12:47.429Z,10.43
2022-12-27T23:15:16.704Z,9.07
2022-12-27T23:17:46.085Z,9.80
2022-12-27T23:20:15.418Z,10.10
2022-12-27T23:22:45.997Z,10.87
2022-12-27T23:25:15.591Z,9.77
2022-12-27T23:27:44.701Z,9.90
2022-12-27T23:30:14.721Z,9.83
2022-12-27T23:32:43.863Z,10.17
2022-12-27T23:35:13.076Z,10.93
2022-12-27T23:37:42.222Z,9.87
2022-12-27T23:40:13.880Z,10.60
2022-12-27T23:42:43.079Z,10.10
2022-12-27T23:45:12.835Z,11.90
2022-12-27T23:47:42.306Z,11.60
2022-12-27T23:50:17.344Z,12.30
2022-12-27T23:52:50.150Z,12.43
2022-12-27T23:55:20.781Z,11.83
2022-12-27T23:57:50.166Z,11.20
